Airport View

Enter AWOS ICAO identifier for current METAR.

ex. KFNL

KMTH 191853Z AUTO 16007KT 10SM FEW018 33/26 A3002 RMK AO2 SLP164 T03280256

19 Jun 2019 19:05

Frequency: 135.525

Phone: 305-743-8373

Other Area AWOS: KNQX - KEYW - KHST - KTMB

TAF KMTH 191723Z 1918/2018 14005KT P6SM FEW020